Ahmed Mrezigue

Olheiro - MC Alger
3 Dez 2028
Domingo
Processo

Personalidade

Adaptabilidade (2) Ambição (12) Controvérsia (9) Lealdade (8) Pressão (16) Profissionalismo (11) Espírito Esportivo (18) Temperamento (13)

Perfil

Estilo de Treinamento Democrático
Licença Continental Pro
Determinação 8
Gestão de Pessoas 8
Motivação 4
Disciplina 11
Satisfação no Trabalho
71%
Fadiga
0%
Função Olheiro
Salário 23.6K p/s
Contrato 14.03.2029

Desempenho

Comportamento Bom
Eficácia do Treinamento
26%
Desenvolvimento do Jogador
55%
Prevenção de Lesões
35%
Implementação Tática
30%

Eventos Recentes

Participou de uma reunião de recrutamento agora
Avaliou um jogador agora
Avaliou um jogador agora
Avaliou um jogador 7d atrás
Avaliou um jogador 7d atrás
Observou uma partida 7d atrás
Avaliou um jogador 7d atrás
Avaliou um jogador 7d atrás

Monitorando agora

84
Jogador Clube Status Habilidade Confiança Observado Última observação Último voto
Gideon Manaseh Ikorodu City Ativo 86 / 109 40% 5 01.12.2028 -
Rene Hrvatin Istra 1961 Ativo 104 / 95 40% 3 01.12.2028 -
Jan Bürger Northampton Town Ativo 114 / 115 40% 5 29.11.2028 -
Malte Heyde Esbjerg Ativo 99 / 139 40% 1 29.11.2028 -
Davinchi Getafe Ativo 109 / 132 40% 4 28.11.2028 -
Benito Paklayan Alvarado Ativo 102 / 72 40% 2 26.11.2028 -
Jan Cedilnik Chikhura Ativo 90 / 110 40% 5 26.11.2028 -
Rashid Al-Hassan Al-Mojzel Ativo 82 / 94 40% 3 25.11.2028 -
Diego León Rotherham United Ativo 116 / 114 40% 5 25.11.2028 -
Máximo Munarriz San Telmo Ativo 90 / 97 40% 4 24.11.2028 -
Matías Satas Grimsby Town Ativo 115 / 101 40% 1 24.11.2028 -
Noah Markmann Esbjerg Ativo 119 / 128 40% 2 23.11.2028 -
Tiago Gordillo San Miguel Ativo 90 / 111 40% 1 23.11.2028 -
Daniel Banjaqui Benfica Ativo 134 / 115 40% 4 22.11.2028 -
Mateo Caballero Defensor Sporting Ativo 105 / 90 40% 2 22.11.2028 -
José Neto Benfica Ativo 116 / 135 40% 1 21.11.2028 -
Mateo Faure BATE Ativo 82 / 94 40% 1 19.11.2028 -
Joel Ezra Enyimba Ativo 97 / 95 40% 1 19.11.2028 -
Omar Kamel Vasco da Gama Ativo 111 / 122 40% 1 10.11.2028 -
Riquelme Thompson-Jones Accrington Stanley Ativo 125 / 131 40% 3 09.11.2028 -
Malte Hallin GIF Sundsvall Ativo 106 / 96 40% 2 07.11.2028 -
Björn Hedlöf Helsingborg Ativo 89 / 122 40% 3 06.11.2028 -
Joaquín Salas Reading Ativo 119 / 118 40% 1 06.11.2028 -
Noa Mikić Imotski Ativo 100 / 112 40% 1 05.11.2028 -
Abubacarr Sedi Kinteh Al-Ahli Ativo 144 / 147 40% 1 04.11.2028 -
Tiago Rodríguez Central Norte Ativo 65 / 62 40% 2 03.11.2028 -
Felipe Pujol Vélez Ativo 107 / 139 40% 2 27.10.2028 -
Tobías Ramírez River Plate Ativo 144 / 128 40% 2 27.10.2028 -
Estanislao López Colón Ativo 107 / 103 40% 1 26.10.2028 -
Santiago Espíndola River Plate Ativo 113 / 115 40% 1 24.10.2028 -
Ivan Borges Defensores Ativo 67 / 108 40% 2 23.10.2028 -
Marko Zebić Lucko Ativo 124 / 136 40% 1 20.10.2028 -
Germán Barbas Racing Santander Ativo 137 / 113 40% 1 19.10.2028 -
Mauro Matorras Central Norte Ativo 104 / 94 40% 2 18.10.2028 -
Aaron Branca Artigas Ativo 67 / 75 40% 1 18.10.2028 -
Alexandr Derzhinskiy Slavia Mozyr Ativo 89 / 114 40% 1 10.10.2028 -
Ronan Kpakio AC Milan Ativo 133 / 147 40% 1 10.10.2028 -
Agustín Medina Lanús Ativo 100 / 121 40% 2 09.10.2028 -
Miguel Figueiredo Benfica Ativo 111 / 113 40% 1 06.10.2028 -
Omar Tharwat Arab Contractors Ativo 95 / 98 40% 1 02.10.2028 -
Jakub Adkonis Korona Ativo 95 / 107 40% 1 17.07.2028 -
Diego Vargas Universidad de Concepcion Negociando 112 / 96 40% 1 17.07.2028 -
Stanley Mills Crewe Alexandra Ativo 119 / 142 40% 1 12.07.2028 -
Sorba Thomas Stoke City Ativo 156 / 142 40% 1 12.07.2028 -
Aimen Lahmeri ES Setif Ativo 120 / 105 51% 1 10.07.2028 -
Ahmed Zaki Masr El Makasa Ativo 92 / 78 40% 4 30.05.2028 -
Andrey Ivlev Nizhniy Novgorod Ativo 103 / 135 40% 3 30.05.2028 -
Nour Ashraf ENPPI Ativo 90 / 105 40% 2 28.05.2028 -
Andrea Cogoni Cosenza Ativo 100 / 110 40% 2 28.05.2028 -
Trey Nyoni Rotherham United Ativo 144 / 130 40% 2 27.05.2028 -
Kiani Inge Groningen Ativo 106 / 109 40% 3 26.05.2028 -
Tyler Fletcher Rotherham United Ativo 104 / 98 40% 4 22.05.2028 -
Honest Ahanor Atalanta Ativo 125 / 145 40% 2 20.05.2028 -
Olivier Leroux Mouscron Ativo 94 / 106 40% 1 20.05.2028 -
Mahmoud El Shenawy Masr El Makasa Ativo 59 / 62 40% 1 18.05.2028 -
Celías Ingenthron Platense Ativo 123 / 108 40% 1 15.05.2028 -
Abubakar Adams Aduana Stars Ativo 92 / 90 40% 1 09.05.2028 -
Martim Cunha Porto Ativo 102 / 109 40% 2 06.05.2028 -
Giovanni Leoni Lincoln City Ativo 137 / 161 40% 3 05.05.2028 -
Artem Nosachev Spartak Moscow Ativo 78 / 92 40% 1 04.05.2028 -
Kamaldeen Atiemo Wa All Stars Ativo 104 / 102 40% 4 29.04.2028 -
Moustapha Sémbène Al-Taawoun Ativo 109 / 124 40% 1 25.04.2028 -
Thijs Kraaijeveld USM Alger Ativo 109 / 121 40% 1 24.04.2028 -
Bernardo Lima Porto Ativo 121 / 121 40% 3 20.04.2028 -
Josh Nichols Oldham Athletic Ativo 128 / 128 40% 1 18.04.2028 -
Mohammed Al-Muhaysh Ohod Ativo 79 / 82 40% 1 31.12.2027 -
Anatole Abang USM Alger Ativo 103 / 122 48% 1 28.06.2027 -
Ben Ahmed Kohili Paradou Ativo 99 / 111 48% 1 01.06.2027 -
Gonçalo Oliveira Benfica Ativo 102 / 107 40% 4 30.05.2027 -
Rivaldo Mkhize Black Aces Ativo 80 / 96 40% 1 28.05.2027 -
Jenson Jones Walsall Ativo 73 / 117 40% 3 23.05.2027 -
Samuele di Benedetto Twente Ativo 98 / 126 40% 1 18.05.2027 -
Zane Albarus Shrewsbury Town Ativo 110 / 90 40% 1 18.05.2027 -
Ezra Mayers West Ham United Ativo 123 / 127 40% 2 16.05.2027 -
Andrea Bertoncini Triestina Ativo 80 / 115 40% 1 06.05.2027 -
Bade Aluko Leicester City Ativo 129 / 112 40% 1 05.05.2027 -
Sascha Britschgi AC Milan Ativo 128 / 125 40% 1 23.04.2027 -
Riyad Idrissi Cagliari Ativo 106 / 124 40% 1 23.04.2027 -
Mpho Khethang FC Diarra Ativo 72 / 73 40% 1 09.04.2027 -
Leandro Martins Benfica Ativo 93 / 111 40% 1 08.04.2027 -
Gastón Álvarez Al-Qadisiyah Ativo 121 / 137 40% 2 26.03.2027 -
Ali Majrashi Al-Ahli Ativo 124 / 116 40% 2 20.03.2027 -
Saeed Baattia Al-Fateh Ativo 107 / 116 40% 1 20.03.2027 -
Ahmed Khaldi USM Alger Ativo 106 / 111 44% 1 03.08.2026 -